Map

Track Data

SID SEASON NUMBER BASIN SUBBASIN NAME ISO_TIME NATURE LAT LON WMO_WIND WMO_PRES WMO_AGENCY TRACK_TYPE DIST2LAND LANDFALL IFLAG USA_AGENCY USA_ATCF_ID USA_LAT USA_LON USA_RECORD USA_STATUS USA_WIND USA_PRES USA_SSHS USA_R34_NE USA_R34_SE USA_R34_SW USA_R34_NW USA_R50_NE USA_R50_SE USA_R50_SW USA_R50_NW USA_R64_NE USA_R64_SE USA_R64_SW USA_R64_NW USA_POCI USA_ROCI USA_RMW USA_EYE TOKYO_LAT TOKYO_LON TOKYO_GRADE TOKYO_WIND TOKYO_PRES TOKYO_R50_DIR TOKYO_R50_LONG TOKYO_R50_SHORT TOKYO_R30_DIR TOKYO_R30_LONG TOKYO_R30_SHORT TOKYO_LAND CMA_LAT CMA_LON CMA_CAT CMA_WIND CMA_PRES HKO_LAT HKO_LON HKO_CAT HKO_WIND HKO_PRES NEWDELHI_LAT NEWDELHI_LON NEWDELHI_GRADE NEWDELHI_WIND NEWDELHI_PRES NEWDELHI_CI NEWDELHI_DP NEWDELHI_POCI REUNION_LAT REUNION_LON REUNION_TYPE REUNION_WIND REUNION_PRES REUNION_TNUM REUNION_CI REUNION_RMW REUNION_R34_NE REUNION_R34_SE REUNION_R34_SW REUNION_R34_NW REUNION_R50_NE REUNION_R50_SE REUNION_R50_SW REUNION_R50_NW REUNION_R64_NE REUNION_R64_SE REUNION_R64_SW REUNION_R64_NW BOM_LAT BOM_LON BOM_TYPE BOM_WIND BOM_PRES BOM_TNUM BOM_CI BOM_RMW BOM_R34_NE BOM_R34_SE BOM_R34_SW BOM_R34_NW BOM_R50_NE BOM_R50_SE BOM_R50_SW BOM_R50_NW BOM_R64_NE BOM_R64_SE BOM_R64_SW BOM_R64_NW BOM_ROCI BOM_POCI BOM_EYE BOM_POS_METHOD BOM_PRES_METHOD NADI_LAT NADI_LON NADI_CAT NADI_WIND NADI_PRES WELLINGTON_LAT WELLINGTON_LON WELLINGTON_WIND WELLINGTON_PRES DS824_LAT DS824_LON DS824_STAGE DS824_WIND DS824_PRES TD9636_LAT TD9636_LON TD9636_STAGE TD9636_WIND TD9636_PRES TD9635_LAT TD9635_LON TD9635_WIND TD9635_PRES TD9635_ROCI NEUMANN_LAT NEUMANN_LON NEUMANN_CLASS NEUMANN_WIND NEUMANN_PRES MLC_LAT MLC_LON MLC_CLASS MLC_WIND MLC_PRES USA_GUST BOM_GUST BOM_GUST_PER REUNION_GUST REUNION_GUST_PER USA_SEAHGT USA_SEARAD_NE USA_SEARAD_SE USA_SEARAD_SW USA_SEARAD_NW STORM_SPEED STORM_DIR
2019116N02090 2019 22 NI BB FANI 2019-04-25 18:00:00 TS 1.90000 90.2000 main 627 626 O_____________ jtwc_io IO012019 1.90000 90.2000 TD 25 1004 -1 1009 200 50 4 335
2019116N02090 2019 22 NI BB FANI 2019-04-25 21:00:00 TS 2.05999 90.1225 main 636 636 P_____________ IO012019 2.05999 90.1225 TD 25 1003 -1 1007 150 50 4 326
2019116N02090 2019 22 NI BB FANI 2019-04-26 00:00:00 TS 2.20000 90.0000 main 646 646 O_____________ jtwc_io IO012019 2.20000 90.0000 TD 25 1003 -1 1006 100 50 4 311
2019116N02090 2019 22 NI BB FANI 2019-04-26 03:00:00 TS 2.32001 89.8200 main 668 667 P_____________ IO012019 2.32001 89.8200 TD 25 1003 -1 1006 125 47 4 315
2019116N02090 2019 22 NI BB FANI 2019-04-26 06:00:00 TS 2.50000 89.7000 main 678 661 O_____________ jtwc_io IO012019 2.50000 89.7000 TD 25 1003 -1 1006 150 45 5 353
2019116N02090 2019 22 NI BB FANI 2019-04-26 09:00:00 TS 2.82000 89.7625 main 661 643 P_____________ IO012019 2.82000 89.7625 TD 25 1003 -1 1006 150 45 7 5
2019116N02090 2019 22 NI BB FANI 2019-04-26 12:00:00 TS 3.20000 89.7600 25 998 newdelhi main 643 639 O___O_________ jtwc_io IO012019 3.20000 89.9000 TD 25 1003 -1 1006 150 45 3.20000 89.2000 D 25 998 1.50000 4 7 352
2019116N02090 2019 22 NI BB FANI 2019-04-26 15:00:00 TS 3.50645 89.6658 main 642 642 P___P_________ IO012019 3.55000 90.0225 TD 27 1003 -1 1006 150 45 3.41934 88.9523 D 25 998 4 7 341
2019116N02090 2019 22 NI BB FANI 2019-04-26 18:00:00 TS 3.81429 89.5429 25 998 newdelhi main 654 648 O___O_________ jtwc_io IO012019 3.90000 90.1000 TD 30 1004 -1 1006 150 45 3.70000 88.8000 D 25 998 1.50000 4 7 340
2019116N02090 2019 22 NI BB FANI 2019-04-26 21:00:00 TS 4.17227 89.4216 main 655 649 P___P_________ IO012019 4.26500 90.0501 TD 32 1003 -1 1007 135 37 4.07954 88.7931 D 27 997 4 8 349
2019116N02090 2019 22 NI BB FANI 2019-04-27 00:00:00 TS 4.55000 89.4000 30 997 newdelhi main 647 645 O___O_________ jtwc_io IO012019 4.60000 90.0000 TS 35 1003 0 70 50 80 45 1008 120 30 4.50000 88.8000 DD 30 997 2.00000 5 7 0
2019116N02090 2019 22 NI BB FANI 2019-04-27 03:00:00 TS 4.86375 89.4075 30 996 newdelhi main 644 643 P___O_________ IO012019 4.82751 90.1149 TS 40 1000 0 82 65 75 57 1008 137 30 4.90000 88.7000 DD 30 996 2.00000 6 6 1
2019116N02090 2019 22 NI BB FANI 2019-04-27 06:00:00 TS 5.15000 89.4000 35 995 newdelhi main 642 642 O___O_________ jtwc_io IO012019 5.10000 90.2000 TS 45 998 0 95 80 70 70 1008 155 30 5.20000 88.6000 CS 35 995 2.50000 7 6 353
2019116N02090 2019 22 NI BB FANI 2019-04-27 09:00:00 TS 5.49995 89.3275 40 994 newdelhi main 653 653 P___O_________ IO012019 5.59990 90.1550 TS 45 997 0 102 82 72 77 1007 167 30 5.40000 88.5000 CS 40 994 2.50000 8 9 347
2019116N02090 2019 22 NI BB FANI 2019-04-27 12:00:00 TS 6.00000 89.2000 45 992 newdelhi main 665 665 O___O_________ jtwc_io IO012019 6.10000 89.9000 TS 45 996 0 110 85 75 85 1006 180 30 5.90000 88.5000 CS 45 992 3.00000 10 10 334
2019116N02090 2019 22 NI BB FANI 2019-04-27 15:00:00 TS 6.35138 88.9038 45 992 newdelhi main 703 703 P___O_________ IO012019 6.40276 89.3076 TS 45 996 0 100 80 70 65 1006 185 30 6.30000 88.5000 CS 45 992 3.00000 10 10 309
2019116N02090 2019 22 NI BB FANI 2019-04-27 18:00:00 TS 6.60000 88.4500 45 992 newdelhi main 730 696 O___O_________ jtwc_io IO012019 6.60000 88.7000 TS 45 996 0 90 75 65 45 1006 190 30 6.60000 88.2000 CS 45 992 3.00000 10 9 303
2019116N02090 2019 22 NI BB FANI 2019-04-27 21:00:00 TS 6.82869 88.1550 45 992 newdelhi main 696 684 P___O_________ IO012019 6.75738 88.4099 TS 45 997 0 92 70 65 65 1007 185 30 6.90000 87.9000 CS 45 992 3.00000 10 6 325
2019116N02090 2019 22 NI BB FANI 2019-04-28 00:00:00 TS 7.10000 88.1000 45 992 newdelhi main 684 684 O___O_________ jtwc_io IO012019 6.90000 88.3000 TS 45 998 0 95 65 65 85 1008 180 30 7.30000 87.9000 CS 45 992 3.00000 10 4 350
2019116N02090 2019 22 NI BB FANI 2019-04-28 03:00:00 TS 7.19624 88.0887 45 992 newdelhi main 685 685 P___O_________ IO012019 7.09249 88.2775 TS 45 998 0 85 75 67 80 1008 172 30 7.30000 87.9000 CS 45 992 3.00000 10 3 347
2019116N02090 2019 22 NI BB FANI 2019-04-28 06:00:00 TS 7.35000 88.0500 45 992 newdelhi main 686 664 O___O_________ jtwc_io IO012019 7.30000 88.3000 TS 45 998 0 75 85 70 75 1008 165 30 7.40000 87.8000 CS 45 992 3.00000 10 5 333
2019116N02090 2019 22 NI BB FANI 2019-04-28 09:00:00 TS 7.60375 87.8825 45 992 newdelhi main 665 637 P___O_________ IO012019 7.50750 88.2650 TS 45 997 0 77 82 70 80 1007 160 30 7.70000 87.5000 CS 45 992 3.00000 10 8 323
2019116N02090 2019 22 NI BB FANI 2019-04-28 12:00:00 TS 7.95000 87.6000 45 992 newdelhi main 638 628 O___O_________ jtwc_io IO012019 7.70000 88.2000 TS 45 996 0 80 80 70 85 1006 155 30 8.20000 87.0000 CS 45 992 3.00000 10 6 321
2019116N02090 2019 22 NI BB FANI 2019-04-28 15:00:00 TS 8.06750 87.5037 45 992 newdelhi main 630 630 P___O_________ IO012019 7.83500 88.1075 TS 45 995 0 82 75 57 80 1006 150 30 8.30000 86.9000 CS 45 992 3.00000 10 3 329
2019116N02090 2019 22 NI BB FANI 2019-04-28 18:00:00 TS 8.20000 87.4500 45 992 newdelhi main 631 620 O___O_________ jtwc_io IO012019 8.00000 88.0000 TS 45 995 0 85 70 45 75 1006 145 30 8.40000 86.9000 CS 45 992 3.00000 10 3 343
2019116N02090 2019 22 NI BB FANI 2019-04-28 21:00:00 TS 8.38124 87.4075 45 992 newdelhi main 623 623 P___O_________ IO012019 8.26249 87.9149 TS 45 992 0 85 70 60 67 1007 150 30 8.50000 86.9000 CS 45 992 3.00000 10 4 347
2019116N02090 2019 22 NI BB FANI 2019-04-29 00:00:00 TS 8.60000 87.3500 45 992 newdelhi main 627 609 O___O_________ jtwc_io IO012019 8.60000 87.8000 TS 45 989 0 85 70 75 60 1008 155 30 8.60000 86.9000 CS 45 992 3.00000 10 5 340
2019116N02090 2019 22 NI BB FANI 2019-04-29 03:00:00 TS 8.83877 87.2426 45 992 newdelhi main 609 609 P___O_________ IO012019 8.97755 87.5851 TS 47 987 0 87 72 72 60 1008 160 30 8.70000 86.9000 CS 45 992 3.00000 10 7 344
2019116N02090 2019 22 NI BB FANI 2019-04-29 06:00:00 TS 9.30000 87.1500 45 992 newdelhi main 624 613 O___O_________ jtwc_io IO012019 9.40000 87.4000 TS 50 985 0 90 75 70 60 40 35 1008 165 30 9.20000 86.9000 CS 45 992 3.00000 10 10 352
2019116N02090 2019 22 NI BB FANI 2019-04-29 09:00:00 TS 9.77873 87.1036 45 992 newdelhi main 632 632 P___O_________ IO012019 9.85745 87.4073 TS 55 986 0 107 90 77 80 42 37 1007 170 30 9.70000 86.8000 CS 45 992 3.00000 10 9 354
2019116N02090 2019 22 NI BB FANI 2019-04-29 12:00:00 TS 10.2000 87.0500 55 986 newdelhi main 651 641 O___O_________ jtwc_io IO012019 10.3000 87.4000 TS 60 987 0 125 105 85 100 45 40 30 30 1006 175 30 10.1000 86.7000 SCS 55 986 3.50000 16 8 348
2019116N02090 2019 22 NI BB FANI 2019-04-29 15:00:00 TS 10.5250 86.9400 55 986 newdelhi main 645 645 P___O_________ IO012019 10.6501 87.1800 TS 65 984 1 122 100 90 95 52 42 37 35 2 2 2 2 1006 175 30 10.4000 86.7000 SCS 55 986 3.50000 16 8 337
2019116N02090 2019 22 NI BB FANI 2019-04-29 18:00:00 TS 10.9000 86.7500 55 986 newdelhi main 655 645 O___O_________ jtwc_io IO012019 11.0000 86.9000 TY 70 981 1 120 95 95 90 60 45 45 40 5 5 5 5 1006 175 30 10.8000 86.6000 SCS 55 986 3.50000 16 8 336
2019116N02090 2019 22 NI BB FANI 2019-04-29 21:00:00 TS 11.2675 86.6074 65 982 newdelhi main 656 656 P___O_________ IO012019 11.4349 86.7148 TY 77 976 1 112 97 92 87 55 47 42 40 10 10 10 10 1006 175 17 11.1000 86.5000 VSCS 65 982 4.00000 20 9 345
2019116N02090 2019 22 NI BB FANI 2019-04-30 00:00:00 TS 11.8000 86.5000 70 980 newdelhi main 676 638 O___O_________ jtwc_io IO012019 11.9000 86.5000 TY 85 971 2 105 100 90 85 50 50 40 40 15 15 15 15 1006 175 5 10 11.7000 86.5000 VSCS 70 980 4.00000 22 12 339
2019116N02090 2019 22 NI BB FANI 2019-04-30 03:00:00 TS 12.3437 86.1938 75 974 newdelhi main 638 576 P___O_________ IO012019 12.3875 86.1876 TY 87 969 2 112 107 90 90 55 55 42 42 22 22 17 20 1006 177 5 12.3000 86.2000 VSCS 75 974 4.50000 28 12 321
2019116N02090 2019 22 NI BB FANI 2019-04-30 06:00:00 TS 12.7000 85.7500 80 970 newdelhi main 576 516 O___O_________ jtwc_io IO012019 12.8000 85.8000 TY 90 967 2 120 115 90 95 60 60 45 45 30 30 20 25 1006 180 5 10 12.6000 85.7000 VSCS 80 970 4.50000 32 11 308
2019116N02090 2019 22 NI BB FANI 2019-04-30 09:00:00 TS 13.0226 85.3175 85 966 newdelhi main 516 465 P___O_________ IO012019 13.0451 85.3349 TY 92 965 2 115 102 85 97 57 52 40 47 30 25 20 25 1006 175 8 13.0000 85.3000 VSCS 85 966 4.50000 36 11 301
2019116N02090 2019 22 NI BB FANI 2019-04-30 12:00:00 TS 13.2500 84.8000 90 962 newdelhi main 456 435 O___O_________ jtwc_io IO012019 13.2000 84.9000 TY 95 964 2 110 90 80 100 55 45 35 50 30 20 20 25 1006 170 12 15 13.3000 84.7000 ESCS 90 962 5.00000 40 8 295
2019116N02090 2019 22 NI BB FANI 2019-04-30 15:00:00 TS 13.3749 84.5524 95 957 newdelhi main 435 413 P___O_________ IO012019 13.3499 84.6049 TY 100 959 3 115 100 82 97 57 55 37 47 35 27 20 25 1006 177 12 13.4000 84.5000 ESCS 95 957 5.00000 45 5 303
2019116N02090 2019 22 NI BB FANI 2019-04-30 18:00:00 TS 13.5000 84.4000 95 957 newdelhi main 413 392 O___O_________ jtwc_io IO012019 13.5000 84.4000 TY 105 955 3 120 110 85 95 60 65 40 45 40 35 20 25 1006 185 12 15 13.5000 84.4000 ESCS 95 957 5.00000 45 4 309
2019116N02090 2019 22 NI BB FANI 2019-04-30 21:00:00 TS 13.6500 84.2063 95 957 newdelhi main 383 358 P___O_________ IO012019 13.7000 84.2125 TY 105 953 3 125 112 87 102 65 62 42 50 37 32 22 27 1005 182 12 13.6000 84.2000 ESCS 95 957 5.00000 45 5 320
2019116N02090 2019 22 NI BB FANI 2019-05-01 00:00:00 TS 13.9000 84.0500 95 957 newdelhi main 358 334 O___O_________ jtwc_io IO012019 13.9000 84.1000 TY 105 952 3 130 115 90 110 70 60 45 55 35 30 25 30 1004 180 12 15 13.9000 84.0000 ESCS 95 957 5.00000 45 5 333
2019116N02090 2019 22 NI BB FANI 2019-05-01 03:00:00 TS 14.0675 83.9850 95 957 newdelhi main 334 324 P___O_________ IO012019 14.0350 84.0700 TY 105 951 3 112 115 100 105 57 62 55 50 30 32 30 27 1004 180 12 14.1000 83.9000 ESCS 95 957 5.00000 45 3 351
2019116N02090 2019 22 NI BB FANI 2019-05-01 06:00:00 TS 14.2000 84.0000 95 957 newdelhi main 324 304 O___O_________ jtwc_io IO012019 14.2000 84.1000 TY 105 951 3 95 115 110 100 45 65 65 45 25 35 35 25 1004 180 12 14.2000 83.9000 ESCS 95 957 5.00000 45 5 17
2019116N02090 2019 22 NI BB FANI 2019-05-01 09:00:00 TS 14.4963 84.1212 95 955 newdelhi main 304 278 P___O_________ IO012019 14.4925 84.1425 TY 105 951 3 95 115 110 100 45 65 65 45 25 35 35 25 1004 170 8 14.5000 84.1000 ESCS 95 955 5.00000 45 7 12
2019116N02090 2019 22 NI BB FANI 2019-05-01 12:00:00 TS 14.8500 84.1500 100 950 newdelhi main 278 270 O___O_________ jtwc_io IO012019 14.8000 84.2000 TY 105 951 3 95 115 110 100 45 65 65 45 25 35 35 25 1004 160 5 10 14.9000 84.1000 ESCS 100 950 5.50000 50 6 4
2019116N02090 2019 22 NI BB FANI 2019-05-01 15:00:00 TS 15.0500 84.1675 100 950 newdelhi main 270 256 P___O_________ IO012019 15.0000 84.2351 TY 105 951 3 117 125 115 112 60 70 65 55 32 37 35 30 1004 157 5 15.1000 84.1000 ESCS 100 950 5.50000 50 4 6
2019116N02090 2019 22 NI BB FANI 2019-05-01 18:00:00 TS 15.2000 84.2000 100 950 newdelhi main 256 246 O___O_________ jtwc_io IO012019 15.2000 84.3000 TY 105 951 3 140 135 120 125 75 75 65 65 40 40 35 35 1004 155 5 10 15.2000 84.1000 ESCS 100 950 5.50000 50 5 19
2019116N02090 2019 22 NI BB FANI 2019-05-01 21:00:00 TS 15.4775 84.3212 100 950 newdelhi main 246 244 P___O_________ IO012019 15.4550 84.4425 TY 107 946 3 142 142 120 117 75 75 67 60 42 45 37 35 1003 157 5 15.5000 84.2000 ESCS 100 950 5.50000 50 7 27
2019116N02090 2019 22 NI BB FANI 2019-05-02 00:00:00 TS 15.8500 84.5500 105 945 newdelhi main 241 216 O___O_________ jtwc_io IO012019 15.8000 84.6000 TY 110 941 3 145 150 120 110 75 75 70 55 45 50 40 35 1003 160 5 10 15.9000 84.5000 ESCS 105 945 5.50000 55 8 23
2019116N02090 2019 22 NI BB FANI 2019-05-02 03:00:00 TS 16.2425 84.6612 105 945 newdelhi main 223 192 P___O_________ IO012019 16.2850 84.7224 TY 115 937 4 147 152 122 112 72 75 70 57 45 50 40 35 1002 160 5 16.2000 84.6000 ESCS 105 945 5.50000 55 9 15
2019116N02090 2019 22 NI BB FANI 2019-05-02 06:00:00 TS 16.7500 84.8000 110 940 newdelhi main 183 153 O___O_________ jtwc_io IO012019 16.8000 84.8000 TY 120 934 4 150 155 125 115 70 75 70 60 45 50 40 35 1001 160 5 10 16.7000 84.8000 ESCS 110 940 6.00000 60 9 8
2019116N02090 2019 22 NI BB FANI 2019-05-02 09:00:00 TS 17.1612 84.8001 115 932 newdelhi main 143 116 P___O_________ IO012019 17.2225 84.8002 TY 135 917 4 152 157 127 120 75 80 72 60 47 52 42 37 1000 145 8 17.1000 84.8000 ESCS 115 932 6.00000 66 8 1
2019116N02090 2019 22 NI BB FANI 2019-05-02 12:00:00 TS 17.5500 84.8000 115 932 newdelhi main 107 92 O___O_________ jtwc_io IO012019 17.6000 84.8000 ST 150 900 5 155 160 130 125 80 85 75 60 50 55 45 40 999 130 12 15 17.5000 84.8000 ESCS 115 932 6.00000 66 7 6
2019116N02090 2019 22 NI BB FANI 2019-05-02 15:00:00 TS 17.8750 84.8813 115 934 newdelhi main 92 76 P___O_________ IO012019 17.9500 84.8626 ST 147 902 5 160 165 132 127 70 75 70 50 45 47 40 35 999 135 12 17.8000 84.9000 ESCS 115 934 6.00000 66 7 15
2019116N02090 2019 22 NI BB FANI 2019-05-02 18:00:00 TS 18.2500 85.0000 115 934 newdelhi main 69 62 O___O_________ jtwc_io IO012019 18.3000 85.0000 ST 145 905 5 165 170 135 130 60 65 65 40 40 40 35 30 999 140 12 15 18.2000 85.0000 ESCS 115 934 6.00000 66 8 23
2019116N02090 2019 22 NI BB FANI 2019-05-02 21:00:00 TS 18.6350 85.2175 115 934 newdelhi main 67 54 P___O_________ IO012019 18.6701 85.2350 ST 140 911 5 160 165 132 122 65 90 80 62 50 50 42 37 1000 142 12 18.6000 85.2000 ESCS 115 934 6.00000 66 10 29
2019116N02090 2019 22 NI BB FANI 2019-05-03 00:00:00 TS 19.1000 85.5000 105 945 newdelhi main 54 22 O___O_________ jtwc_io IO012019 19.1000 85.5000 ST 135 918 4 155 160 130 115 70 115 95 85 60 60 50 45 1002 145 12 15 19.1000 85.5000 ESCS 105 945 6.00000 55 11 25
2019116N02090 2019 22 NI BB FANI 2019-05-03 03:00:00 TS 19.6137 85.6964 100 952 newdelhi main 22 0 P___O_________ IO012019 19.6274 85.6928 ST 125 930 4 145 152 125 102 67 90 75 65 50 52 42 35 1003 157 11 19.6000 85.7000 ESCS 100 952 5.50000 50 12 19
2019116N02090 2019 22 NI BB FANI 2019-05-03 06:00:00 TS 20.2000 85.9000 85 966 newdelhi main 0 0 O___O_________ jtwc_io IO012019 20.2000 85.9000 TY 115 942 4 135 145 120 90 65 65 55 45 40 45 35 25 1004 170 10 20.2000 85.9000 VSCS 85 966 0.00000 36 11 18
2019116N02090 2019 22 NI BB FANI 2019-05-03 09:00:00 TS 20.6823 86.0702 75 970 newdelhi main 0 0 P___O_________ IO012019 20.7647 86.1404 TY 95 956 2 130 142 117 87 67 70 57 42 37 42 32 1002 155 12 20.6000 86.0000 VSCS 75 970 0.00000 28 12 29
2019116N02090 2019 22 NI BB FANI 2019-05-03 12:00:00 TS 21.2000 86.5000 70 976 newdelhi main 0 0 O___O_________ jtwc_io IO012019 21.3000 86.5000 TY 75 971 1 125 140 115 85 70 75 60 40 35 40 30 1001 140 15 21.1000 86.5000 VSCS 70 976 0.00000 22 12 39
2019116N02090 2019 22 NI BB FANI 2019-05-03 15:00:00 TS 21.6214 86.8814 60 980 newdelhi main 0 0 P___O_________ IO012019 21.7428 87.0628 TY 65 978 1 110 132 105 72 40 42 35 25 17 20 15 1001 140 15 21.5000 86.7000 SCS 60 980 0.00000 18 12 45
2019116N02090 2019 22 NI BB FANI 2019-05-03 18:00:00 TS 22.0500 87.4000 55 984 newdelhi main 0 0 O___O_________ jtwc_io IO012019 22.2000 87.7000 TS 55 985 0 95 125 95 60 10 10 10 10 1001 140 15 21.9000 87.1000 SCS 55 984 0.00000 16 15 47
2019116N02090 2019 22 NI BB FANI 2019-05-03 21:00:00 TS 22.6386 88.0752 50 986 newdelhi main 0 0 P___O_________ IO012019 22.7772 88.2504 TS 47 989 0 72 87 72 55 1003 140 15 22.5000 87.9000 SCS 50 986 0.00000 12 15 40
2019116N02090 2019 22 NI BB FANI 2019-05-04 00:00:00 TS 23.2286 88.4571 40 994 newdelhi main 0 0 O___O_________ jtwc_io IO012019 23.4000 88.8000 TS 40 993 0 50 50 50 50 1005 140 15 23.1000 88.2000 CS 40 994 0.00000 8 14 38
2019116N02090 2019 22 NI BB FANI 2019-05-04 03:00:00 TS 23.7360 88.9955 30 996 newdelhi main 0 0 P___O_________ IO012019 24.0081 89.3864 TS 35 996 0 25 25 25 25 1005 140 15 23.6000 88.8000 DD 30 996 0.00000 6 15 39
2019116N02090 2019 22 NI BB FANI 2019-05-04 06:00:00 TS 24.3750 89.4750 25 998 newdelhi main 0 0 O___O_________ jtwc_io IO012019 24.6000 90.0000 TD 30 999 -1 1005 140 15 24.3000 89.3000 D 25 998 0.00000 5 14 38
2019116N02090 2019 22 NI BB FANI 2019-05-04 09:00:00 NR 24.8292 89.9407 main 0 0 ____P_________ IO012019 TD -1 24.8292 89.9407 D 22 999 4 14 53
2019116N02090 2019 22 NI BB FANI 2019-05-04 12:00:00 NR 25.2000 90.7000 20 1000 newdelhi main 0 ____O_________ 25.2000 90.7000 D 20 1000 0.00000 4 16 62

About IBTrACS Database

This database is a web-friendly format of International Best Track Archive for Climate Stewardship (IBTrACS), a global best track data archive curated by NOAA dating back to 1842.

Updated: 2021-10-08